Redan, Georgia
Current Conditions -  °F | °C
As of 7:53 AM on Thursday 18 Dec 2014 (Local Time) from KPDK Reporting Station
Few Clouds Few Clouds  
Wind Chill: 31°   Ceiling: Unl
Heat Index: 36°   Visibility: 8mi
Dew Point: 30°   Wind: 6mph
Humidity: 79%   Direction: 320°NW
Pressure: 30.17"   Gusts: NA
Location:  33.75°N, 84.13°W
Report Text: KPDK 181253Z 32005KT 8SM FEW120 02/M01 A3017 RMK AO2 SLP230 T00221011
Loading
Personal Weather Stations






























Interactive Weather Map New forecast layout! Learn more

10-Day Weather Forecast

Advertisements
Track Severe Weather on mobile